createdAt,value
2023-02-07T00:01:36.966Z,81364.69
2023-02-07T00:04:06.593Z,81623.09
2023-02-07T00:06:36.115Z,81364.69
2023-02-07T00:09:06.433Z,81106.28
2023-02-07T00:11:40.256Z,81623.09
2023-02-07T00:14:09.884Z,81881.53
2023-02-07T00:16:44.496Z,82139.97
2023-02-07T00:19:11.906Z,82139.97
2023-02-07T00:21:39.124Z,82139.97
2023-02-07T00:24:07.709Z,82398.44
2023-02-07T00:26:34.941Z,82656.94
2023-02-07T00:29:05.281Z,82656.94
2023-02-07T00:31:36.382Z,82139.97
2023-02-07T00:34:06.520Z,82139.97
2023-02-07T00:36:37.068Z,82398.44
2023-02-07T00:39:13.133Z,82139.97
2023-02-07T00:41:41.013Z,82139.97
2023-02-07T00:44:09.214Z,81623.09
2023-02-07T00:46:39.567Z,81881.53
2023-02-07T00:49:07.518Z,82139.97
2023-02-07T00:51:34.730Z,82139.97
2023-02-07T00:54:04.304Z,82139.97
2023-02-07T00:56:32.005Z,82398.44
2023-02-07T00:59:00.096Z,82139.97
2023-02-07T01:01:27.583Z,82139.97
2023-02-07T01:03:57.227Z,81881.53
2023-02-07T01:06:28.178Z,81881.53
2023-02-07T01:08:58.193Z,81881.53
2023-02-07T01:11:25.724Z,81623.09
2023-02-07T01:13:55.331Z,81364.69
2023-02-07T01:16:27.222Z,81106.28
2023-02-07T01:18:55.356Z,81364.69
2023-02-07T01:21:30.001Z,81364.69
2023-02-07T01:23:57.424Z,80847.91
2023-02-07T01:26:27.498Z,80847.91
2023-02-07T01:28:56.177Z,80847.91
2023-02-07T01:31:26.105Z,80847.91
2023-02-07T01:33:55.428Z,81106.28
2023-02-07T01:36:27.240Z,81106.28
2023-02-07T01:38:55.350Z,81106.28
2023-02-07T01:41:24.168Z,80847.91
2023-02-07T01:43:57.597Z,81106.28
2023-02-07T01:46:28.280Z,81106.28
2023-02-07T01:48:58.996Z,81106.28
2023-02-07T01:51:27.714Z,80847.91
2023-02-07T01:53:57.995Z,80589.56
2023-02-07T01:56:31.909Z,80331.25
2023-02-07T01:59:05.774Z,80847.91
2023-02-07T02:01:36.078Z,80847.91
2023-02-07T02:04:03.729Z,80847.91
2023-02-07T02:06:34.662Z,81106.28
2023-02-07T02:09:09.559Z,80847.91
2023-02-07T02:12:10.300Z,80847.91
2023-02-07T02:15:00.562Z,80589.56
2023-02-07T02:18:03.786Z,80589.56
2023-02-07T02:21:10.184Z,80847.91
2023-02-07T02:23:56.859Z,80847.91
2023-02-07T02:26:27.130Z,81364.69
2023-02-07T02:29:22.110Z,81364.69
2023-02-07T02:32:17.194Z,81106.28
2023-02-07T02:35:05.236Z,81364.69
2023-02-07T02:37:58.422Z,81106.28
2023-02-07T02:41:16.429Z,80847.91
2023-02-07T02:43:50.023Z,81106.28
2023-02-07T02:46:25.183Z,81106.28
2023-02-07T02:48:55.956Z,80847.91
2023-02-07T02:51:24.472Z,80589.56
2023-02-07T02:53:58.524Z,80589.56
2023-02-07T02:56:38.242Z,80331.25
2023-02-07T02:59:29.225Z,80331.25
2023-02-07T03:02:35.343Z,80589.56
2023-02-07T03:05:22.680Z,80331.25
2023-02-07T03:08:25.876Z,80589.56
2023-02-07T03:10:58.873Z,80589.56
2023-02-07T03:13:28.938Z,80847.91
2023-02-07T03:16:06.500Z,81106.28
2023-02-07T03:18:52.734Z,80847.91
2023-02-07T03:21:30.710Z,80847.91
2023-02-07T03:24:00.493Z,80847.91
2023-02-07T03:26:32.114Z,80589.56
2023-02-07T03:29:01.300Z,80589.56
2023-02-07T03:31:31.965Z,80331.25
2023-02-07T03:34:07.867Z,80331.25
2023-02-07T03:36:43.711Z,80331.25
2023-02-07T03:39:13.810Z,80072.94
2023-02-07T03:41:52.773Z,79814.63
2023-02-07T03:44:25.443Z,79814.63
2023-02-07T03:46:55.098Z,79814.63
2023-02-07T03:49:24.856Z,79298.09
2023-02-07T03:51:54.891Z,79039.88
2023-02-07T03:54:22.091Z,78781.66
2023-02-07T03:56:51.537Z,78007.13
2023-02-07T03:59:18.688Z,76974.69
2023-02-07T04:01:46.317Z,76458.59
2023-02-07T04:04:17.422Z,75942.56
2023-02-07T04:06:44.683Z,74910.75
2023-02-07T04:09:16.323Z,74137.09
2023-02-07T04:11:43.472Z,73879.22
2023-02-07T04:14:10.634Z,73879.22
2023-02-07T04:16:37.887Z,74137.09
2023-02-07T04:19:05.085Z,74652.84
2023-02-07T04:21:32.647Z,74910.75
2023-02-07T04:24:03.384Z,75168.66
2023-02-07T04:26:30.904Z,76200.56
2023-02-07T04:28:58.440Z,75426.59
2023-02-07T04:31:25.957Z,75426.59
2023-02-07T04:33:58.460Z,74910.75
2023-02-07T04:36:25.642Z,75168.66
2023-02-07T04:38:58.527Z,75426.59
2023-02-07T04:41:25.814Z,75942.56
2023-02-07T04:43:55.631Z,76200.56
2023-02-07T04:46:22.855Z,76200.56
2023-02-07T04:48:50.323Z,76458.59
2023-02-07T04:51:22.386Z,76716.63
2023-02-07T04:53:49.604Z,75942.56
2023-02-07T04:56:23.502Z,75684.56
2023-02-07T04:58:51.172Z,75684.56
2023-02-07T05:01:19.369Z,75942.56
2023-02-07T05:03:49.590Z,75942.56
2023-02-07T05:06:17.007Z,76200.56
2023-02-07T05:08:44.279Z,76716.63
2023-02-07T05:11:11.774Z,76974.69
2023-02-07T05:13:41.836Z,76974.69
2023-02-07T05:16:09.347Z,76716.63
2023-02-07T05:18:39.044Z,76974.69
2023-02-07T05:21:11.460Z,77232.75
2023-02-07T05:23:38.933Z,76974.69
2023-02-07T05:26:06.057Z,76716.63
2023-02-07T05:28:34.012Z,76974.69
2023-02-07T05:31:01.481Z,77490.88
2023-02-07T05:33:30.435Z,77748.97
2023-02-07T05:36:02.846Z,79039.88
2023-02-07T05:38:30.120Z,79814.63
2023-02-07T05:40:59.972Z,80331.25
2023-02-07T05:43:27.102Z,80331.25
2023-02-07T05:45:58.258Z,80589.56
2023-02-07T05:48:25.456Z,80589.56
2023-02-07T05:50:55.032Z,81106.28
2023-02-07T05:53:22.326Z,80847.91
2023-02-07T05:55:52.567Z,80589.56
2023-02-07T05:58:20.931Z,80847.91
2023-02-07T06:00:53.925Z,81106.28
2023-02-07T06:03:23.656Z,80847.91
2023-02-07T06:05:51.427Z,80847.91
2023-02-07T06:08:18.714Z,80072.94
2023-02-07T06:10:50.998Z,79556.34
2023-02-07T06:13:18.089Z,79039.88
2023-02-07T06:15:50.073Z,78523.44
2023-02-07T06:18:17.435Z,78523.44
2023-02-07T06:20:48.401Z,78007.13
2023-02-07T06:23:15.904Z,78007.13
2023-02-07T06:25:43.010Z,77490.88
2023-02-07T06:28:12.661Z,77232.75
2023-02-07T06:30:44.708Z,77232.75
2023-02-07T06:33:12.236Z,77232.75
2023-02-07T06:35:39.689Z,77232.75
2023-02-07T06:38:07.154Z,76974.69
2023-02-07T06:40:34.352Z,77232.75
2023-02-07T06:43:03.915Z,77490.88
2023-02-07T06:45:31.297Z,75426.59
2023-02-07T06:47:58.474Z,73879.22
2023-02-07T06:50:28.335Z,73879.22
2023-02-07T06:53:03.500Z,73879.22
2023-02-07T06:55:32.510Z,74394.94
2023-02-07T06:57:59.836Z,74910.75
2023-02-07T07:00:27.327Z,75168.66
2023-02-07T07:02:54.625Z,75168.66
2023-02-07T07:05:24.315Z,77232.75
2023-02-07T07:07:52.093Z,77490.88
2023-02-07T07:10:19.622Z,77232.75
2023-02-07T07:12:47.715Z,77748.97
2023-02-07T07:15:15.471Z,78265.28
2023-02-07T07:17:42.655Z,78523.44
2023-02-07T07:20:10.894Z,78781.66
2023-02-07T07:22:40.580Z,78523.44
2023-02-07T07:25:08.517Z,78523.44
2023-02-07T07:27:38.091Z,78523.44
2023-02-07T07:30:06.039Z,79039.88
2023-02-07T07:32:34.573Z,79039.88
2023-02-07T07:35:05.008Z,78781.66
2023-02-07T07:37:33.109Z,78781.66
2023-02-07T07:40:00.314Z,79039.88
2023-02-07T07:42:29.915Z,79039.88
2023-02-07T07:45:17.735Z,79556.34
2023-02-07T07:47:44.864Z,79556.34
2023-02-07T07:50:14.530Z,79814.63
2023-02-07T07:52:43.046Z,79556.34
2023-02-07T07:55:15.394Z,79814.63
2023-02-07T07:57:42.596Z,79814.63
2023-02-07T08:00:11.520Z,79298.09
2023-02-07T08:02:42.472Z,79039.88
2023-02-07T08:05:13.187Z,78781.66
2023-02-07T08:07:41.132Z,78523.44
2023-02-07T08:10:08.566Z,78265.28
2023-02-07T08:12:36.027Z,77748.97
2023-02-07T08:15:09.465Z,78265.28
2023-02-07T08:17:37.350Z,78523.44
2023-02-07T08:20:05.337Z,78781.66
2023-02-07T08:22:35.029Z,79298.09
2023-02-07T08:25:02.193Z,79298.09
2023-02-07T08:27:29.535Z,79298.09
2023-02-07T08:29:57.132Z,81364.69
2023-02-07T08:32:24.331Z,87054.19
2023-02-07T08:34:51.579Z,89902.44
2023-02-07T08:37:18.866Z,90420.56
2023-02-07T08:39:46.092Z,91716.22
2023-02-07T08:42:13.366Z,92753.06
2023-02-07T08:44:40.665Z,93530.91
2023-02-07T08:47:10.368Z,94049.59
2023-02-07T08:49:37.462Z,95606.03
2023-02-07T08:52:07.683Z,96384.53
2023-02-07T08:54:35.504Z,97163.19
2023-02-07T08:57:03.442Z,97422.78
2023-02-07T08:59:30.651Z,98201.69
2023-02-07T09:01:58.072Z,98201.69
2023-02-07T09:04:26.834Z,98201.69
2023-02-07T09:06:53.964Z,98201.69
2023-02-07T09:09:22.642Z,98721.03
2023-02-07T09:11:49.865Z,98461.34
2023-02-07T09:14:19.517Z,98461.34
2023-02-07T09:16:46.993Z,98201.69
2023-02-07T09:19:14.385Z,98461.34
2023-02-07T09:21:41.876Z,98201.69
2023-02-07T09:24:09.069Z,98461.34
2023-02-07T09:26:39.096Z,98461.34
2023-02-07T09:29:11.880Z,98201.69
2023-02-07T09:31:41.899Z,97682.41
2023-02-07T09:34:09.569Z,97422.78
2023-02-07T09:36:39.364Z,97942.03
2023-02-07T09:39:11.224Z,97942.03
2023-02-07T09:41:38.473Z,98461.34
2023-02-07T09:44:08.677Z,98461.34
2023-02-07T09:46:54.635Z,98721.03
2023-02-07T09:49:42.121Z,98461.34
2023-02-07T09:52:49.896Z,98980.75
2023-02-07T09:55:32.607Z,98201.69
2023-02-07T09:58:09.692Z,97942.03
2023-02-07T10:00:37.750Z,97163.19
2023-02-07T10:03:20.087Z,96903.63
2023-02-07T10:06:03.708Z,96384.53
2023-02-07T10:08:41.285Z,96384.53
2023-02-07T10:11:09.765Z,96644.06
2023-02-07T10:13:37.297Z,96644.06
2023-02-07T10:16:19.459Z,96384.53
2023-02-07T10:18:58.379Z,96125.00
2023-02-07T10:21:52.618Z,95865.50
2023-02-07T10:25:05.255Z,95865.50
2023-02-07T10:27:42.539Z,96125.00
2023-02-07T10:30:25.110Z,95865.50
2023-02-07T10:32:53.534Z,93271.63
2023-02-07T10:35:29.838Z,93790.25
2023-02-07T10:38:02.776Z,93530.91
2023-02-07T10:40:47.174Z,94568.31
2023-02-07T10:43:35.246Z,95346.59
2023-02-07T10:46:10.121Z,94827.72
2023-02-07T10:48:39.868Z,94568.31
2023-02-07T10:51:21.240Z,94308.94
2023-02-07T10:53:55.551Z,94308.94
2023-02-07T10:56:28.190Z,93790.25
2023-02-07T10:58:59.351Z,93530.91
2023-02-07T11:01:31.383Z,93271.63
2023-02-07T11:04:01.778Z,93012.34
2023-02-07T11:06:34.503Z,92493.81
2023-02-07T11:09:23.067Z,91975.41
2023-02-07T11:11:53.245Z,91975.41
2023-02-07T11:14:29.845Z,91716.22
2023-02-07T11:17:02.424Z,91197.91
2023-02-07T11:19:31.079Z,91197.91
2023-02-07T11:22:19.056Z,91457.03
2023-02-07T11:24:53.264Z,90938.78
2023-02-07T11:27:22.116Z,90420.56
2023-02-07T11:30:22.992Z,89902.44
2023-02-07T11:33:03.178Z,89384.41
2023-02-07T11:35:30.565Z,88866.44
2023-02-07T11:38:13.952Z,88607.50
2023-02-07T11:40:41.571Z,88348.56
2023-02-07T11:43:16.153Z,88089.66
2023-02-07T11:45:46.983Z,87054.19
2023-02-07T11:48:19.759Z,87054.19
2023-02-07T11:50:56.643Z,87054.19
2023-02-07T11:53:27.191Z,86795.38
2023-02-07T11:55:56.498Z,87313.03
2023-02-07T11:58:36.755Z,87571.88
2023-02-07T12:01:09.134Z,87830.75
2023-02-07T12:04:09.121Z,88348.56
2023-02-07T12:06:36.222Z,88607.50
2023-02-07T12:09:12.700Z,88866.44
2023-02-07T12:11:42.557Z,88866.44
2023-02-07T12:14:26.104Z,87571.88
2023-02-07T12:16:55.812Z,85501.56
2023-02-07T12:19:28.337Z,84466.88
2023-02-07T12:22:19.970Z,82915.44
2023-02-07T12:24:59.392Z,80589.56
2023-02-07T12:27:35.273Z,81106.28
2023-02-07T12:30:25.697Z,74910.75
2023-02-07T12:33:27.816Z,73879.22
2023-02-07T12:36:11.177Z,73879.22
2023-02-07T12:38:51.372Z,71044.19
2023-02-07T12:41:39.957Z,68468.91
2023-02-07T12:44:29.822Z,66410.09
2023-02-07T12:47:22.439Z,63838.31
2023-02-07T12:50:29.280Z,40863.38
2023-02-07T12:53:11.573Z,40312.84
2023-02-07T12:56:02.547Z,40546.22
2023-02-07T12:58:50.826Z,40061.56
2023-02-07T13:01:49.149Z,39967.81
2023-02-07T13:04:38.161Z,39925.94
2023-02-07T13:07:33.664Z,39965.81
2023-02-07T13:10:04.499Z,39929.94
2023-02-07T13:12:41.682Z,40067.53
2023-02-07T13:15:09.042Z,40199.16
2023-02-07T13:17:45.250Z,40496.34
2023-02-07T13:20:38.177Z,40707.78
2023-02-07T13:23:17.333Z,40795.56
2023-02-07T13:25:47.589Z,41017.00
2023-02-07T13:28:47.048Z,41262.38
2023-02-07T13:31:20.612Z,41475.88
2023-02-07T13:33:50.665Z,41896.88
2023-02-07T13:36:22.965Z,42433.72
2023-02-07T13:39:24.523Z,43313.97
2023-02-07T13:42:18.794Z,44523.94
2023-02-07T13:45:18.152Z,45215.00
2023-02-07T13:47:57.657Z,46313.75
2023-02-07T13:50:53.734Z,47642.75
2023-02-07T13:53:51.618Z,48924.25
2023-02-07T13:56:50.692Z,50300.28
2023-02-07T13:59:40.919Z,52775.75
2023-02-07T14:02:21.318Z,53760.84
2023-02-07T14:05:06.776Z,54852.38
2023-02-07T14:07:39.395Z,55621.66
2023-02-07T14:10:43.562Z,56647.66
2023-02-07T14:13:20.696Z,58443.91
2023-02-07T14:15:48.654Z,56647.66
2023-02-07T14:18:37.004Z,57673.97
2023-02-07T14:21:21.092Z,59214.00
2023-02-07T14:23:57.420Z,60241.09
2023-02-07T14:26:40.059Z,61525.38
2023-02-07T14:29:26.962Z,62039.22
2023-02-07T14:32:00.441Z,62296.19
2023-02-07T14:34:51.608Z,63067.16
2023-02-07T14:37:36.467Z,62553.16
2023-02-07T14:40:22.180Z,63067.16
2023-02-07T14:42:55.563Z,63324.19
2023-02-07T14:45:23.739Z,63838.31
2023-02-07T14:47:54.182Z,64352.53
2023-02-07T14:50:28.122Z,64866.81
2023-02-07T14:52:58.294Z,65123.97
2023-02-07T14:55:34.784Z,65123.97
2023-02-07T14:58:09.389Z,66152.84
2023-02-07T15:00:48.873Z,66410.09
2023-02-07T15:03:21.326Z,66410.09
2023-02-07T15:06:04.255Z,66667.38
2023-02-07T15:08:35.194Z,66410.09
2023-02-07T15:11:11.599Z,66667.38
2023-02-07T15:13:43.482Z,67696.72
2023-02-07T15:16:11.017Z,68983.81
2023-02-07T15:18:48.196Z,69241.31
2023-02-07T15:21:51.251Z,69498.81
2023-02-07T15:24:45.925Z,70271.41
2023-02-07T15:27:31.111Z,70528.97
2023-02-07T15:30:02.285Z,70013.84
2023-02-07T15:32:32.991Z,68983.81
2023-02-07T15:35:26.797Z,68211.50
2023-02-07T15:38:18.345Z,68468.91
2023-02-07T15:40:48.848Z,68726.38
2023-02-07T15:43:32.086Z,64866.81
2023-02-07T15:46:02.406Z,62039.22
2023-02-07T15:48:30.830Z,62039.22
2023-02-07T15:51:01.295Z,63067.16
2023-02-07T15:53:31.757Z,63581.25
2023-02-07T15:56:04.813Z,64095.41
2023-02-07T15:58:38.757Z,63838.31
2023-02-07T16:01:15.161Z,63838.31
2023-02-07T16:03:46.180Z,63581.25
2023-02-07T16:06:22.563Z,63581.25
2023-02-07T16:09:02.515Z,64609.66
2023-02-07T16:11:34.775Z,65381.16
2023-02-07T16:14:25.451Z,65638.38
2023-02-07T16:16:55.532Z,66410.09
2023-02-07T16:19:22.995Z,67182.00
2023-02-07T16:22:13.268Z,67439.34
2023-02-07T16:24:46.581Z,67696.72
2023-02-07T16:27:23.764Z,67954.09
2023-02-07T16:29:51.352Z,68468.91
2023-02-07T16:32:18.969Z,68468.91
2023-02-07T16:34:59.362Z,68468.91
2023-02-07T16:37:30.154Z,68468.91
2023-02-07T16:39:57.409Z,68468.91
2023-02-07T16:42:24.805Z,68726.38
2023-02-07T16:44:53.709Z,68211.50
2023-02-07T16:47:21.565Z,68211.50
2023-02-07T16:49:51.610Z,67954.09
2023-02-07T16:52:19.005Z,67696.72
2023-02-07T16:54:46.981Z,67439.34
2023-02-07T16:57:15.093Z,67439.34
2023-02-07T16:59:43.606Z,67182.00
2023-02-07T17:02:16.750Z,67182.00
2023-02-07T17:04:43.942Z,66667.38
2023-02-07T17:07:11.752Z,65895.59
2023-02-07T17:09:38.857Z,65638.38
2023-02-07T17:12:07.340Z,65123.97
2023-02-07T17:14:40.114Z,64866.81
2023-02-07T17:17:09.202Z,64609.66
2023-02-07T17:19:37.452Z,64609.66
2023-02-07T17:22:07.138Z,63838.31
2023-02-07T17:24:34.445Z,63838.31
2023-02-07T17:27:01.758Z,63581.25
2023-02-07T17:29:29.992Z,62810.16
2023-02-07T17:31:59.821Z,62039.22
2023-02-07T17:34:27.040Z,62039.22
2023-02-07T17:36:55.437Z,61782.28
2023-02-07T17:39:25.053Z,61525.38
2023-02-07T17:41:52.430Z,61782.28
2023-02-07T17:44:23.105Z,61525.38
2023-02-07T17:46:50.635Z,61268.47
2023-02-07T17:49:18.075Z,61011.59
2023-02-07T17:51:45.409Z,60497.91
2023-02-07T17:54:12.717Z,59984.28
2023-02-07T17:56:40.206Z,59727.50
2023-02-07T17:59:10.084Z,59214.00
2023-02-07T18:01:39.442Z,58957.28
2023-02-07T18:04:06.925Z,57930.59
2023-02-07T18:06:34.210Z,57160.78
2023-02-07T18:09:04.582Z,57160.78
2023-02-07T18:11:34.755Z,56647.66
2023-02-07T18:14:02.925Z,56134.63
2023-02-07T18:16:30.392Z,52965.94
2023-02-07T18:18:58.004Z,52687.66
2023-02-07T18:21:26.546Z,55621.66
2023-02-07T18:23:56.275Z,55878.13
2023-02-07T18:26:23.682Z,56647.66
2023-02-07T18:28:51.122Z,56904.22
2023-02-07T18:31:21.909Z,57160.78
2023-02-07T18:33:53.187Z,58187.25
2023-02-07T18:36:23.496Z,58957.28
2023-02-07T18:38:50.648Z,59214.00
2023-02-07T18:41:23.379Z,59727.50
2023-02-07T18:43:50.877Z,59727.50
2023-02-07T18:46:20.370Z,60241.09
2023-02-07T18:48:51.116Z,59984.28
2023-02-07T18:51:19.499Z,60754.75
2023-02-07T18:53:47.613Z,61268.47
2023-02-07T18:56:19.894Z,61011.59
2023-02-07T18:58:52.794Z,60754.75
2023-02-07T19:01:20.937Z,61011.59
2023-02-07T19:03:56.380Z,61525.38
2023-02-07T19:06:29.567Z,62810.16
2023-02-07T19:08:57.142Z,64095.41
2023-02-07T19:11:25.026Z,65638.38
2023-02-07T19:13:55.219Z,66667.38
2023-02-07T19:16:26.567Z,66924.69
2023-02-07T19:18:57.648Z,67954.09
2023-02-07T19:21:27.262Z,69241.31
2023-02-07T19:23:58.866Z,70528.97
2023-02-07T19:26:26.685Z,71559.47
2023-02-07T19:28:54.222Z,73363.59
2023-02-07T19:31:22.786Z,74394.94
2023-02-07T19:33:50.949Z,75168.66
2023-02-07T19:36:25.636Z,75684.56
2023-02-07T19:38:57.259Z,76716.63
2023-02-07T19:41:30.371Z,76974.69
2023-02-07T19:44:05.323Z,77490.88
2023-02-07T19:46:34.725Z,77748.97
2023-02-07T19:49:02.261Z,78523.44
2023-02-07T19:51:32.733Z,79039.88
2023-02-07T19:54:01.075Z,79039.88
2023-02-07T19:56:33.426Z,79556.34
2023-02-07T19:59:03.841Z,80072.94
2023-02-07T20:01:34.325Z,80589.56
2023-02-07T20:04:01.694Z,80589.56
2023-02-07T20:06:32.935Z,80331.25
2023-02-07T20:09:02.537Z,79814.63
2023-02-07T20:11:30.246Z,80072.94
2023-02-07T20:14:05.863Z,80589.56
2023-02-07T20:16:37.347Z,80331.25
2023-02-07T20:19:07.469Z,81106.28
2023-02-07T20:21:39.126Z,81364.69
2023-02-07T20:24:06.988Z,81364.69
2023-02-07T20:26:43.978Z,81106.28
2023-02-07T20:29:16.662Z,81106.28
2023-02-07T20:31:45.890Z,81106.28
2023-02-07T20:34:14.368Z,81106.28
2023-02-07T20:36:43.514Z,80847.91
2023-02-07T20:39:18.580Z,81106.28
2023-02-07T20:41:49.874Z,80589.56
2023-02-07T20:44:20.119Z,80331.25
2023-02-07T20:46:51.518Z,80331.25
2023-02-07T20:49:26.230Z,80589.56
2023-02-07T20:51:58.368Z,80072.94
2023-02-07T20:54:27.869Z,80331.25
2023-02-07T20:56:55.933Z,79814.63
2023-02-07T20:59:29.750Z,79814.63
2023-02-07T21:01:57.256Z,79556.34
2023-02-07T21:04:25.450Z,79814.63
2023-02-07T21:06:53.138Z,80072.94
2023-02-07T21:09:20.797Z,80331.25
2023-02-07T21:11:50.891Z,80072.94
2023-02-07T21:14:29.399Z,80331.25
2023-02-07T21:16:59.594Z,79556.34
2023-02-07T21:19:27.132Z,79556.34
2023-02-07T21:21:55.244Z,79556.34
2023-02-07T21:24:22.974Z,79814.63
2023-02-07T21:26:54.223Z,79556.34
2023-02-07T21:29:22.378Z,79814.63
2023-02-07T21:31:54.997Z,79556.34
2023-02-07T21:34:23.722Z,79039.88
2023-02-07T21:36:52.268Z,79039.88
2023-02-07T21:39:19.986Z,78781.66
2023-02-07T21:41:48.050Z,78523.44
2023-02-07T21:44:15.970Z,78781.66
2023-02-07T21:46:46.800Z,78781.66
2023-02-07T21:49:16.206Z,79039.88
2023-02-07T21:51:50.105Z,79556.34
2023-02-07T21:54:17.335Z,79814.63
2023-02-07T21:56:45.424Z,79814.63
2023-02-07T21:59:17.981Z,79814.63
2023-02-07T22:01:49.243Z,79556.34
2023-02-07T22:04:17.003Z,79556.34
2023-02-07T22:06:47.065Z,80072.94
2023-02-07T22:09:18.070Z,79556.34
2023-02-07T22:11:48.365Z,79039.88
2023-02-07T22:14:16.506Z,78781.66
2023-02-07T22:16:49.514Z,79814.63
2023-02-07T22:19:17.212Z,79814.63
2023-02-07T22:21:50.303Z,79556.34
2023-02-07T22:24:21.447Z,79814.63
2023-02-07T22:26:51.216Z,79814.63
2023-02-07T22:29:18.435Z,79298.09
2023-02-07T22:31:48.183Z,79298.09
2023-02-07T22:34:16.091Z,79298.09
2023-02-07T22:36:46.236Z,79814.63
2023-02-07T22:39:16.739Z,79556.34
2023-02-07T22:41:44.650Z,79298.09
2023-02-07T22:44:11.922Z,79298.09
2023-02-07T22:46:39.592Z,79298.09
2023-02-07T22:49:09.322Z,79814.63
2023-02-07T22:51:38.648Z,80847.91
2023-02-07T22:54:15.550Z,82139.97
2023-02-07T22:56:46.440Z,82398.44
2023-02-07T22:59:15.962Z,82656.94
2023-02-07T23:01:44.927Z,82398.44
2023-02-07T23:04:18.546Z,81364.69
2023-02-07T23:06:46.748Z,80589.56
2023-02-07T23:09:14.570Z,80589.56
2023-02-07T23:11:41.865Z,80331.25
2023-02-07T23:14:11.274Z,80331.25
2023-02-07T23:16:41.396Z,80072.94
2023-02-07T23:19:13.945Z,80072.94
2023-02-07T23:21:41.283Z,79814.63
2023-02-07T23:24:11.154Z,79814.63
2023-02-07T23:26:45.609Z,80072.94
2023-02-07T23:29:12.755Z,80331.25
2023-02-07T23:31:40.256Z,80331.25
2023-02-07T23:34:09.377Z,80331.25
2023-02-07T23:36:37.504Z,80331.25
2023-02-07T23:39:07.786Z,80331.25
2023-02-07T23:41:37.761Z,79814.63
2023-02-07T23:44:05.354Z,79556.34
2023-02-07T23:46:35.531Z,79298.09
2023-02-07T23:49:02.961Z,79298.09
2023-02-07T23:51:30.206Z,79298.09
2023-02-07T23:53:57.715Z,79298.09
2023-02-07T23:56:27.542Z,79298.09
2023-02-07T23:58:57.719Z,79556.34
